sensor_id;sensor_type;location;lat;lon;timestamp;P1;durP1;ratioP1;P2;durP2;ratioP2
24681;SDS011;12802;53.390;-2.328;2023-01-29T00:01:49;30.38;;;17.83;;
24681;SDS011;12802;53.390;-2.328;2023-01-29T00:04:15;29.77;;;17.45;;
24681;SDS011;12802;53.390;-2.328;2023-01-29T00:06:41;29.08;;;17.35;;
24681;SDS011;12802;53.390;-2.328;2023-01-29T00:09:08;29.08;;;17.65;;
24681;SDS011;12802;53.390;-2.328;2023-01-29T00:11:34;29.70;;;16.33;;
24681;SDS011;12802;53.390;-2.328;2023-01-29T00:14:00;24.83;;;16.65;;
24681;SDS011;12802;53.390;-2.328;2023-01-29T00:16:26;23.13;;;15.60;;
24681;SDS011;12802;53.390;-2.328;2023-01-29T00:18:52;23.02;;;14.23;;
24681;SDS011;12802;53.390;-2.328;2023-01-29T00:21:18;20.45;;;13.70;;
24681;SDS011;12802;53.390;-2.328;2023-01-29T00:23:48;23.48;;;13.93;;
24681;SDS011;12802;53.390;-2.328;2023-01-29T00:26:15;19.92;;;12.40;;
24681;SDS011;12802;53.390;-2.328;2023-01-29T00:28:45;23.33;;;14.35;;
24681;SDS011;12802;53.390;-2.328;2023-01-29T00:31:16;19.88;;;12.88;;
24681;SDS011;12802;53.390;-2.328;2023-01-29T00:33:44;19.73;;;12.95;;
24681;SDS011;12802;53.390;-2.328;2023-01-29T00:36:11;17.02;;;12.32;;
24681;SDS011;12802;53.390;-2.328;2023-01-29T00:38:38;18.10;;;10.73;;
24681;SDS011;12802;53.390;-2.328;2023-01-29T00:41:08;20.20;;;11.73;;
24681;SDS011;12802;53.390;-2.328;2023-01-29T00:43:54;16.67;;;8.75;;
24681;SDS011;12802;53.390;-2.328;2023-01-29T00:46:38;13.27;;;8.30;;
24681;SDS011;12802;53.390;-2.328;2023-01-29T00:49:04;15.38;;;8.73;;
24681;SDS011;12802;53.390;-2.328;2023-01-29T00:51:30;12.60;;;9.40;;
24681;SDS011;12802;53.390;-2.328;2023-01-29T00:53:56;12.85;;;9.73;;
24681;SDS011;12802;53.390;-2.328;2023-01-29T00:56:26;12.35;;;7.82;;
24681;SDS011;12802;53.390;-2.328;2023-01-29T00:58:53;12.25;;;6.80;;
24681;SDS011;12802;53.390;-2.328;2023-01-29T01:01:21;11.98;;;7.00;;
24681;SDS011;12802;53.390;-2.328;2023-01-29T01:04:07;9.05;;;6.30;;
24681;SDS011;12802;53.390;-2.328;2023-01-29T01:06:38;12.70;;;7.68;;
24681;SDS011;12802;53.390;-2.328;2023-01-29T01:09:05;12.88;;;7.18;;
24681;SDS011;12802;53.390;-2.328;2023-01-29T01:11:50;14.70;;;7.78;;
24681;SDS011;12802;53.390;-2.328;2023-01-29T01:14:17;16.90;;;7.95;;
24681;SDS011;12802;53.390;-2.328;2023-01-29T01:16:44;16.23;;;8.55;;
24681;SDS011;12802;53.390;-2.328;2023-01-29T01:19:11;14.63;;;8.38;;
24681;SDS011;12802;53.390;-2.328;2023-01-29T01:21:37;16.95;;;9.52;;
24681;SDS011;12802;53.390;-2.328;2023-01-29T01:24:03;16.67;;;9.88;;
24681;SDS011;12802;53.390;-2.328;2023-01-29T01:26:30;15.88;;;8.93;;
24681;SDS011;12802;53.390;-2.328;2023-01-29T01:28:57;15.60;;;9.07;;
24681;SDS011;12802;53.390;-2.328;2023-01-29T01:31:23;17.00;;;9.55;;
24681;SDS011;12802;53.390;-2.328;2023-01-29T01:33:49;17.00;;;8.90;;
24681;SDS011;12802;53.390;-2.328;2023-01-29T01:36:16;17.45;;;8.02;;
24681;SDS011;12802;53.390;-2.328;2023-01-29T01:38:42;11.07;;;7.55;;
24681;SDS011;12802;53.390;-2.328;2023-01-29T01:41:09;16.48;;;7.60;;
24681;SDS011;12802;53.390;-2.328;2023-01-29T01:43:46;11.57;;;7.30;;
24681;SDS011;12802;53.390;-2.328;2023-01-29T01:46:15;12.57;;;6.78;;
24681;SDS011;12802;53.390;-2.328;2023-01-29T01:48:41;9.63;;;6.50;;
24681;SDS011;12802;53.390;-2.328;2023-01-29T01:51:08;13.35;;;7.03;;
24681;SDS011;12802;53.390;-2.328;2023-01-29T01:53:42;14.73;;;6.75;;
24681;SDS011;12802;53.390;-2.328;2023-01-29T01:56:13;15.77;;;6.97;;
24681;SDS011;12802;53.390;-2.328;2023-01-29T01:58:43;8.40;;;5.22;;
24681;SDS011;12802;53.390;-2.328;2023-01-29T02:01:14;13.95;;;7.47;;
24681;SDS011;12802;53.390;-2.328;2023-01-29T02:03:43;14.30;;;6.15;;
24681;SDS011;12802;53.390;-2.328;2023-01-29T02:06:39;12.35;;;6.47;;
24681;SDS011;12802;53.390;-2.328;2023-01-29T02:09:25;11.57;;;5.53;;
24681;SDS011;12802;53.390;-2.328;2023-01-29T02:12:15;17.38;;;5.70;;
24681;SDS011;12802;53.390;-2.328;2023-01-29T02:14:41;9.00;;;5.97;;
24681;SDS011;12802;53.390;-2.328;2023-01-29T02:17:09;9.48;;;5.25;;
24681;SDS011;12802;53.390;-2.328;2023-01-29T02:30:19;11.10;;;6.18;;
24681;SDS011;12802;53.390;-2.328;2023-01-29T02:32:58;13.63;;;6.82;;
24681;SDS011;12802;53.390;-2.328;2023-01-29T02:35:43;11.80;;;6.65;;
24681;SDS011;12802;53.390;-2.328;2023-01-29T02:47:06;15.55;;;7.80;;
24681;SDS011;12802;53.390;-2.328;2023-01-29T02:52:17;11.63;;;7.03;;
24681;SDS011;12802;53.390;-2.328;2023-01-29T02:57:23;15.68;;;8.68;;
24681;SDS011;12802;53.390;-2.328;2023-01-29T02:59:59;12.43;;;8.00;;
24681;SDS011;12802;53.390;-2.328;2023-01-29T03:05:27;12.93;;;8.32;;
24681;SDS011;12802;53.390;-2.328;2023-01-29T03:08:01;19.05;;;9.45;;
24681;SDS011;12802;53.390;-2.328;2023-01-29T03:10:35;13.60;;;7.43;;
24681;SDS011;12802;53.390;-2.328;2023-01-29T03:13:18;20.05;;;8.25;;
24681;SDS011;12802;53.390;-2.328;2023-01-29T03:15:51;9.68;;;6.65;;
24681;SDS011;12802;53.390;-2.328;2023-01-29T03:18:41;9.77;;;6.72;;
24681;SDS011;12802;53.390;-2.328;2023-01-29T03:21:30;12.30;;;7.18;;
24681;SDS011;12802;53.390;-2.328;2023-01-29T03:24:35;10.45;;;6.45;;
24681;SDS011;12802;53.390;-2.328;2023-01-29T03:31:12;20.50;;;5.65;;
24681;SDS011;12802;53.390;-2.328;2023-01-29T03:34:15;11.80;;;6.22;;
24681;SDS011;12802;53.390;-2.328;2023-01-29T03:39:20;8.13;;;5.60;;
24681;SDS011;12802;53.390;-2.328;2023-01-29T03:44:36;7.57;;;4.72;;
24681;SDS011;12802;53.390;-2.328;2023-01-29T03:50:13;16.85;;;4.57;;
24681;SDS011;12802;53.390;-2.328;2023-01-29T03:52:48;8.52;;;4.32;;
24681;SDS011;12802;53.390;-2.328;2023-01-29T03:55:29;7.53;;;4.20;;
24681;SDS011;12802;53.390;-2.328;2023-01-29T03:58:36;5.90;;;4.15;;
24681;SDS011;12802;53.390;-2.328;2023-01-29T04:04:04;5.38;;;4.28;;
24681;SDS011;12802;53.390;-2.328;2023-01-29T04:06:37;7.32;;;4.47;;
24681;SDS011;12802;53.390;-2.328;2023-01-29T04:09:15;9.30;;;5.05;;
24681;SDS011;12802;53.390;-2.328;2023-01-29T04:11:49;9.45;;;4.38;;
24681;SDS011;12802;53.390;-2.328;2023-01-29T04:14:20;6.70;;;4.15;;
24681;SDS011;12802;53.390;-2.328;2023-01-29T04:16:49;9.90;;;4.85;;
24681;SDS011;12802;53.390;-2.328;2023-01-29T04:19:30;6.53;;;4.03;;
24681;SDS011;12802;53.390;-2.328;2023-01-29T04:22:00;6.85;;;4.18;;
24681;SDS011;12802;53.390;-2.328;2023-01-29T04:24:47;9.50;;;5.05;;
24681;SDS011;12802;53.390;-2.328;2023-01-29T04:27:26;7.65;;;4.65;;
24681;SDS011;12802;53.390;-2.328;2023-01-29T04:37:50;9.45;;;4.85;;
24681;SDS011;12802;53.390;-2.328;2023-01-29T04:43:08;9.40;;;4.68;;
24681;SDS011;12802;53.390;-2.328;2023-01-29T04:48:23;7.20;;;4.45;;
24681;SDS011;12802;53.390;-2.328;2023-01-29T04:51:23;7.38;;;4.07;;
24681;SDS011;12802;53.390;-2.328;2023-01-29T04:56:36;7.75;;;3.70;;
24681;SDS011;12802;53.390;-2.328;2023-01-29T04:59:14;5.95;;;3.65;;
24681;SDS011;12802;53.390;-2.328;2023-01-29T05:01:45;7.28;;;3.85;;
24681;SDS011;12802;53.390;-2.328;2023-01-29T05:04:13;6.32;;;4.05;;
24681;SDS011;12802;53.390;-2.328;2023-01-29T05:09:11;6.97;;;3.33;;
24681;SDS011;12802;53.390;-2.328;2023-01-29T05:11:39;6.90;;;4.47;;
24681;SDS011;12802;53.390;-2.328;2023-01-29T05:14:06;4.38;;;2.97;;
24681;SDS011;12802;53.390;-2.328;2023-01-29T05:16:42;4.55;;;3.10;;
24681;SDS011;12802;53.390;-2.328;2023-01-29T05:19:12;5.53;;;2.90;;
24681;SDS011;12802;53.390;-2.328;2023-01-29T05:21:41;4.20;;;2.83;;
24681;SDS011;12802;53.390;-2.328;2023-01-29T05:24:16;8.87;;;2.87;;
24681;SDS011;12802;53.390;-2.328;2023-01-29T05:26:47;4.68;;;2.72;;
24681;SDS011;12802;53.390;-2.328;2023-01-29T05:29:32;7.90;;;2.08;;
24681;SDS011;12802;53.390;-2.328;2023-01-29T05:31:58;3.28;;;1.98;;
24681;SDS011;12802;53.390;-2.328;2023-01-29T05:34:24;3.85;;;1.52;;
24681;SDS011;12802;53.390;-2.328;2023-01-29T05:36:50;3.35;;;1.70;;
24681;SDS011;12802;53.390;-2.328;2023-01-29T05:39:16;5.10;;;1.77;;
24681;SDS011;12802;53.390;-2.328;2023-01-29T05:41:42;3.00;;;1.77;;
24681;SDS011;12802;53.390;-2.328;2023-01-29T05:44:08;2.28;;;1.60;;
24681;SDS011;12802;53.390;-2.328;2023-01-29T05:46:34;2.97;;;1.70;;
24681;SDS011;12802;53.390;-2.328;2023-01-29T05:49:01;1.63;;;1.23;;
24681;SDS011;12802;53.390;-2.328;2023-01-29T05:51:27;3.22;;;1.70;;
24681;SDS011;12802;53.390;-2.328;2023-01-29T05:53:53;5.28;;;1.25;;
24681;SDS011;12802;53.390;-2.328;2023-01-29T05:56:18;1.45;;;0.80;;
24681;SDS011;12802;53.390;-2.328;2023-01-29T05:58:44;3.05;;;1.85;;
24681;SDS011;12802;53.390;-2.328;2023-01-29T06:01:11;2.72;;;1.30;;
24681;SDS011;12802;53.390;-2.328;2023-01-29T06:03:39;2.58;;;0.82;;
24681;SDS011;12802;53.390;-2.328;2023-01-29T06:06:05;5.03;;;1.55;;
24681;SDS011;12802;53.390;-2.328;2023-01-29T06:08:31;3.90;;;1.23;;
24681;SDS011;12802;53.390;-2.328;2023-01-29T06:10:57;1.33;;;0.93;;
24681;SDS011;12802;53.390;-2.328;2023-01-29T06:13:23;4.03;;;1.25;;
24681;SDS011;12802;53.390;-2.328;2023-01-29T06:15:48;3.13;;;1.23;;
24681;SDS011;12802;53.390;-2.328;2023-01-29T06:18:14;8.02;;;1.83;;
24681;SDS011;12802;53.390;-2.328;2023-01-29T06:20:40;2.78;;;1.40;;
24681;SDS011;12802;53.390;-2.328;2023-01-29T06:23:06;3.63;;;1.35;;
24681;SDS011;12802;53.390;-2.328;2023-01-29T06:25:31;9.15;;;2.03;;
24681;SDS011;12802;53.390;-2.328;2023-01-29T06:27:57;1.85;;;1.27;;
24681;SDS011;12802;53.390;-2.328;2023-01-29T06:30:23;2.40;;;1.60;;
24681;SDS011;12802;53.390;-2.328;2023-01-29T06:32:49;3.72;;;1.90;;
24681;SDS011;12802;53.390;-2.328;2023-01-29T06:35:14;1.67;;;1.08;;
24681;SDS011;12802;53.390;-2.328;2023-01-29T06:37:40;2.92;;;1.25;;
24681;SDS011;12802;53.390;-2.328;2023-01-29T06:40:06;4.97;;;1.45;;
24681;SDS011;12802;53.390;-2.328;2023-01-29T06:42:35;4.43;;;1.45;;
24681;SDS011;12802;53.390;-2.328;2023-01-29T06:45:01;2.63;;;1.48;;
24681;SDS011;12802;53.390;-2.328;2023-01-29T06:47:27;5.38;;;1.58;;
24681;SDS011;12802;53.390;-2.328;2023-01-29T06:49:53;3.65;;;1.45;;
24681;SDS011;12802;53.390;-2.328;2023-01-29T06:52:19;4.50;;;1.73;;
24681;SDS011;12802;53.390;-2.328;2023-01-29T06:54:44;6.90;;;1.58;;
24681;SDS011;12802;53.390;-2.328;2023-01-29T06:57:10;2.70;;;1.45;;
24681;SDS011;12802;53.390;-2.328;2023-01-29T06:59:36;2.95;;;1.77;;
24681;SDS011;12802;53.390;-2.328;2023-01-29T07:02:02;2.33;;;1.08;;
24681;SDS011;12802;53.390;-2.328;2023-01-29T07:04:28;5.80;;;1.20;;
24681;SDS011;12802;53.390;-2.328;2023-01-29T07:06:54;2.45;;;1.42;;
24681;SDS011;12802;53.390;-2.328;2023-01-29T07:09:19;2.25;;;1.35;;
24681;SDS011;12802;53.390;-2.328;2023-01-29T07:11:45;3.22;;;1.30;;
24681;SDS011;12802;53.390;-2.328;2023-01-29T07:14:12;2.58;;;1.02;;
24681;SDS011;12802;53.390;-2.328;2023-01-29T07:16:37;4.75;;;1.55;;
24681;SDS011;12802;53.390;-2.328;2023-01-29T07:19:03;7.78;;;1.55;;
24681;SDS011;12802;53.390;-2.328;2023-01-29T07:21:29;2.38;;;1.20;;
24681;SDS011;12802;53.390;-2.328;2023-01-29T07:23:54;2.40;;;1.48;;
24681;SDS011;12802;53.390;-2.328;2023-01-29T07:26:20;4.32;;;1.55;;
24681;SDS011;12802;53.390;-2.328;2023-01-29T07:28:46;5.03;;;1.45;;
24681;SDS011;12802;53.390;-2.328;2023-01-29T07:31:12;4.55;;;0.93;;
24681;SDS011;12802;53.390;-2.328;2023-01-29T07:33:39;5.38;;;1.80;;
24681;SDS011;12802;53.390;-2.328;2023-01-29T07:36:07;3.45;;;1.42;;
24681;SDS011;12802;53.390;-2.328;2023-01-29T07:38:34;1.83;;;1.08;;
24681;SDS011;12802;53.390;-2.328;2023-01-29T07:41:00;2.78;;;1.42;;
24681;SDS011;12802;53.390;-2.328;2023-01-29T07:43:26;3.88;;;1.88;;
24681;SDS011;12802;53.390;-2.328;2023-01-29T07:45:52;3.05;;;1.55;;
24681;SDS011;12802;53.390;-2.328;2023-01-29T07:48:17;6.35;;;2.08;;
24681;SDS011;12802;53.390;-2.328;2023-01-29T07:50:43;5.60;;;2.03;;
24681;SDS011;12802;53.390;-2.328;2023-01-29T07:53:13;4.18;;;1.85;;
24681;SDS011;12802;53.390;-2.328;2023-01-29T07:55:39;10.70;;;1.92;;
24681;SDS011;12802;53.390;-2.328;2023-01-29T07:58:05;2.45;;;1.50;;
24681;SDS011;12802;53.390;-2.328;2023-01-29T08:00:31;3.40;;;1.83;;
24681;SDS011;12802;53.390;-2.328;2023-01-29T08:03:04;4.70;;;1.48;;
24681;SDS011;12802;53.390;-2.328;2023-01-29T08:05:31;3.83;;;1.80;;
24681;SDS011;12802;53.390;-2.328;2023-01-29T08:07:57;2.90;;;1.45;;
24681;SDS011;12802;53.390;-2.328;2023-01-29T08:10:24;3.00;;;1.80;;
24681;SDS011;12802;53.390;-2.328;2023-01-29T08:12:54;6.38;;;1.48;;
24681;SDS011;12802;53.390;-2.328;2023-01-29T08:15:23;2.00;;;1.30;;
24681;SDS011;12802;53.390;-2.328;2023-01-29T08:17:50;2.53;;;1.50;;
24681;SDS011;12802;53.390;-2.328;2023-01-29T08:20:16;15.02;;;1.95;;
24681;SDS011;12802;53.390;-2.328;2023-01-29T08:22:43;2.42;;;1.33;;
24681;SDS011;12802;53.390;-2.328;2023-01-29T08:25:08;2.83;;;1.73;;
24681;SDS011;12802;53.390;-2.328;2023-01-29T08:27:34;4.57;;;1.83;;
24681;SDS011;12802;53.390;-2.328;2023-01-29T08:30:00;8.38;;;2.05;;
24681;SDS011;12802;53.390;-2.328;2023-01-29T08:32:26;2.83;;;1.88;;
24681;SDS011;12802;53.390;-2.328;2023-01-29T08:34:52;4.30;;;2.30;;
24681;SDS011;12802;53.390;-2.328;2023-01-29T08:37:18;6.85;;;1.88;;
24681;SDS011;12802;53.390;-2.328;2023-01-29T08:39:43;5.90;;;1.80;;
24681;SDS011;12802;53.390;-2.328;2023-01-29T08:42:09;6.55;;;1.30;;
24681;SDS011;12802;53.390;-2.328;2023-01-29T08:44:35;3.03;;;1.67;;
24681;SDS011;12802;53.390;-2.328;2023-01-29T08:47:00;3.55;;;1.83;;
24681;SDS011;12802;53.390;-2.328;2023-01-29T08:49:26;4.45;;;2.40;;
24681;SDS011;12802;53.390;-2.328;2023-01-29T08:51:53;2.92;;;1.63;;
24681;SDS011;12802;53.390;-2.328;2023-01-29T08:54:21;5.07;;;1.13;;
24681;SDS011;12802;53.390;-2.328;2023-01-29T08:56:47;2.58;;;1.38;;
24681;SDS011;12802;53.390;-2.328;2023-01-29T08:59:13;3.38;;;1.42;;
24681;SDS011;12802;53.390;-2.328;2023-01-29T09:01:39;7.57;;;1.88;;
24681;SDS011;12802;53.390;-2.328;2023-01-29T09:04:04;4.78;;;1.67;;
24681;SDS011;12802;53.390;-2.328;2023-01-29T09:06:30;2.05;;;1.10;;
24681;SDS011;12802;53.390;-2.328;2023-01-29T09:08:56;10.85;;;2.47;;
24681;SDS011;12802;53.390;-2.328;2023-01-29T09:11:21;2.38;;;1.85;;
24681;SDS011;12802;53.390;-2.328;2023-01-29T09:13:47;1.38;;;0.98;;
24681;SDS011;12802;53.390;-2.328;2023-01-29T09:16:13;3.42;;;1.95;;
24681;SDS011;12802;53.390;-2.328;2023-01-29T09:18:39;2.72;;;1.67;;
24681;SDS011;12802;53.390;-2.328;2023-01-29T09:21:04;3.70;;;1.23;;
24681;SDS011;12802;53.390;-2.328;2023-01-29T09:23:30;3.33;;;2.08;;
24681;SDS011;12802;53.390;-2.328;2023-01-29T09:25:56;2.88;;;1.67;;
24681;SDS011;12802;53.390;-2.328;2023-01-29T09:28:22;2.95;;;1.55;;
24681;SDS011;12802;53.390;-2.328;2023-01-29T09:30:48;2.97;;;1.92;;
24681;SDS011;12802;53.390;-2.328;2023-01-29T09:33:14;3.78;;;1.63;;
24681;SDS011;12802;53.390;-2.328;2023-01-29T09:35:40;4.55;;;1.65;;
24681;SDS011;12802;53.390;-2.328;2023-01-29T09:38:07;3.63;;;2.05;;
24681;SDS011;12802;53.390;-2.328;2023-01-29T09:43:33;2.25;;;1.33;;
24681;SDS011;12802;53.390;-2.328;2023-01-29T09:46:04;2.85;;;1.50;;
24681;SDS011;12802;53.390;-2.328;2023-01-29T09:48:40;4.72;;;1.40;;
24681;SDS011;12802;53.390;-2.328;2023-01-29T09:51:11;7.68;;;1.25;;
24681;SDS011;12802;53.390;-2.328;2023-01-29T09:53:52;2.60;;;1.40;;
24681;SDS011;12802;53.390;-2.328;2023-01-29T09:58:55;2.50;;;1.10;;
24681;SDS011;12802;53.390;-2.328;2023-01-29T10:01:35;5.18;;;1.10;;
24681;SDS011;12802;53.390;-2.328;2023-01-29T10:18:00;5.55;;;2.10;;
24681;SDS011;12802;53.390;-2.328;2023-01-29T10:23:23;3.55;;;1.60;;
24681;SDS011;12802;53.390;-2.328;2023-01-29T10:25:56;3.95;;;1.65;;
24681;SDS011;12802;53.390;-2.328;2023-01-29T10:28:30;4.68;;;1.70;;
24681;SDS011;12802;53.390;-2.328;2023-01-29T10:31:28;5.00;;;1.80;;
24681;SDS011;12802;53.390;-2.328;2023-01-29T10:34:25;3.88;;;2.03;;
24681;SDS011;12802;53.390;-2.328;2023-01-29T10:36:54;2.63;;;1.77;;
24681;SDS011;12802;53.390;-2.328;2023-01-29T10:39:22;3.65;;;1.75;;
24681;SDS011;12802;53.390;-2.328;2023-01-29T10:44:38;3.97;;;1.83;;
24681;SDS011;12802;53.390;-2.328;2023-01-29T10:47:16;4.05;;;1.73;;
24681;SDS011;12802;53.390;-2.328;2023-01-29T11:01:01;6.15;;;1.58;;
24681;SDS011;12802;53.390;-2.328;2023-01-29T11:03:28;2.33;;;1.17;;
24681;SDS011;12802;53.390;-2.328;2023-01-29T11:08:26;3.00;;;1.25;;
24681;SDS011;12802;53.390;-2.328;2023-01-29T11:11:13;2.00;;;1.08;;
24681;SDS011;12802;53.390;-2.328;2023-01-29T11:13:53;3.13;;;1.52;;
24681;SDS011;12802;53.390;-2.328;2023-01-29T11:16:23;6.30;;;1.33;;
24681;SDS011;12802;53.390;-2.328;2023-01-29T11:18:57;2.53;;;0.77;;
24681;SDS011;12802;53.390;-2.328;2023-01-29T11:21:26;3.88;;;1.27;;
24681;SDS011;12802;53.390;-2.328;2023-01-29T11:26:32;4.65;;;1.27;;
24681;SDS011;12802;53.390;-2.328;2023-01-29T11:29:02;1.92;;;1.02;;
24681;SDS011;12802;53.390;-2.328;2023-01-29T11:31:28;2.17;;;1.23;;
24681;SDS011;12802;53.390;-2.328;2023-01-29T11:34:20;1.55;;;0.80;;
24681;SDS011;12802;53.390;-2.328;2023-01-29T11:37:02;2.20;;;1.13;;
24681;SDS011;12802;53.390;-2.328;2023-01-29T11:39:42;5.57;;;0.98;;
24681;SDS011;12802;53.390;-2.328;2023-01-29T11:42:17;1.88;;;0.75;;
24681;SDS011;12802;53.390;-2.328;2023-01-29T11:44:45;2.90;;;1.02;;
24681;SDS011;12802;53.390;-2.328;2023-01-29T11:49:49;2.45;;;1.02;;
24681;SDS011;12802;53.390;-2.328;2023-01-29T11:52:26;1.95;;;0.98;;
24681;SDS011;12802;53.390;-2.328;2023-01-29T11:55:04;3.67;;;1.35;;
24681;SDS011;12802;53.390;-2.328;2023-01-29T11:57:39;2.60;;;0.82;;
24681;SDS011;12802;53.390;-2.328;2023-01-29T12:00:21;5.03;;;0.80;;
24681;SDS011;12802;53.390;-2.328;2023-01-29T12:02:52;5.22;;;0.60;;
24681;SDS011;12802;53.390;-2.328;2023-01-29T12:05:24;2.97;;;0.77;;
24681;SDS011;12802;53.390;-2.328;2023-01-29T12:07:55;6.65;;;0.98;;
24681;SDS011;12802;53.390;-2.328;2023-01-29T12:15:34;1.35;;;0.70;;
24681;SDS011;12802;53.390;-2.328;2023-01-29T12:20:34;2.78;;;1.20;;
24681;SDS011;12802;53.390;-2.328;2023-01-29T12:26:07;1.95;;;1.13;;
24681;SDS011;12802;53.390;-2.328;2023-01-29T12:28:41;1.45;;;0.70;;
24681;SDS011;12802;53.390;-2.328;2023-01-29T12:34:04;1.77;;;0.93;;
24681;SDS011;12802;53.390;-2.328;2023-01-29T12:37:03;1.63;;;0.93;;
24681;SDS011;12802;53.390;-2.328;2023-01-29T12:39:35;3.33;;;0.88;;
24681;SDS011;12802;53.390;-2.328;2023-01-29T12:42:08;4.60;;;0.65;;
24681;SDS011;12802;53.390;-2.328;2023-01-29T12:44:39;1.60;;;0.70;;
24681;SDS011;12802;53.390;-2.328;2023-01-29T12:47:54;6.05;;;1.15;;
24681;SDS011;12802;53.390;-2.328;2023-01-29T12:52:49;3.00;;;0.93;;
24681;SDS011;12802;53.390;-2.328;2023-01-29T12:55:24;2.83;;;0.80;;
24681;SDS011;12802;53.390;-2.328;2023-01-29T12:57:58;3.58;;;0.82;;
24681;SDS011;12802;53.390;-2.328;2023-01-29T13:00:27;1.27;;;0.60;;
24681;SDS011;12802;53.390;-2.328;2023-01-29T13:03:05;1.73;;;1.05;;
24681;SDS011;12802;53.390;-2.328;2023-01-29T13:05:47;0.95;;;0.80;;
24681;SDS011;12802;53.390;-2.328;2023-01-29T13:10:52;2.10;;;1.00;;
24681;SDS011;12802;53.390;-2.328;2023-01-29T13:16:32;3.85;;;0.60;;
24681;SDS011;12802;53.390;-2.328;2023-01-29T13:19:05;1.13;;;0.70;;
24681;SDS011;12802;53.390;-2.328;2023-01-29T13:22:00;2.17;;;0.95;;
24681;SDS011;12802;53.390;-2.328;2023-01-29T13:24:36;8.52;;;1.63;;
24681;SDS011;12802;53.390;-2.328;2023-01-29T13:27:04;0.73;;;0.45;;
24681;SDS011;12802;53.390;-2.328;2023-01-29T13:29:31;4.35;;;0.73;;
24681;SDS011;12802;53.390;-2.328;2023-01-29T13:32:01;4.53;;;0.70;;
24681;SDS011;12802;53.390;-2.328;2023-01-29T13:34:29;2.05;;;0.75;;
24681;SDS011;12802;53.390;-2.328;2023-01-29T13:37:01;2.08;;;0.95;;
24681;SDS011;12802;53.390;-2.328;2023-01-29T13:39:45;0.98;;;0.65;;
24681;SDS011;12802;53.390;-2.328;2023-01-29T13:42:18;2.38;;;0.68;;
24681;SDS011;12802;53.390;-2.328;2023-01-29T13:45:04;2.05;;;0.60;;
24681;SDS011;12802;53.390;-2.328;2023-01-29T13:47:32;0.50;;;0.40;;
24681;SDS011;12802;53.390;-2.328;2023-01-29T13:52:53;0.93;;;0.65;;
24681;SDS011;12802;53.390;-2.328;2023-01-29T13:55:24;1.02;;;0.50;;
24681;SDS011;12802;53.390;-2.328;2023-01-29T13:58:14;0.90;;;0.60;;
24681;SDS011;12802;53.390;-2.328;2023-01-29T14:10:34;2.25;;;1.20;;
24681;SDS011;12802;53.390;-2.328;2023-01-29T14:18:24;2.75;;;1.10;;
24681;SDS011;12802;53.390;-2.328;2023-01-29T14:20:58;2.25;;;1.15;;
24681;SDS011;12802;53.390;-2.328;2023-01-29T14:23:39;2.13;;;1.05;;
24681;SDS011;12802;53.390;-2.328;2023-01-29T14:39:43;1.60;;;1.00;;
24681;SDS011;12802;53.390;-2.328;2023-01-29T14:42:33;0.98;;;0.65;;
24681;SDS011;12802;53.390;-2.328;2023-01-29T14:45:06;2.00;;;0.98;;
24681;SDS011;12802;53.390;-2.328;2023-01-29T14:52:53;2.85;;;1.15;;
24681;SDS011;12802;53.390;-2.328;2023-01-29T14:55:28;1.90;;;1.05;;
24681;SDS011;12802;53.390;-2.328;2023-01-29T14:58:21;1.83;;;1.15;;
24681;SDS011;12802;53.390;-2.328;2023-01-29T15:00:49;2.38;;;1.10;;
24681;SDS011;12802;53.390;-2.328;2023-01-29T15:03:19;3.78;;;1.13;;
24681;SDS011;12802;53.390;-2.328;2023-01-29T15:05:53;1.98;;;0.88;;
24681;SDS011;12802;53.390;-2.328;2023-01-29T15:08:31;5.47;;;1.52;;
24681;SDS011;12802;53.390;-2.328;2023-01-29T15:11:13;1.85;;;0.98;;
24681;SDS011;12802;53.390;-2.328;2023-01-29T15:14:15;1.35;;;1.00;;
24681;SDS011;12802;53.390;-2.328;2023-01-29T15:19:43;6.72;;;0.95;;
24681;SDS011;12802;53.390;-2.328;2023-01-29T15:22:16;3.08;;;1.23;;
24681;SDS011;12802;53.390;-2.328;2023-01-29T15:25:00;2.75;;;0.90;;
24681;SDS011;12802;53.390;-2.328;2023-01-29T15:27:29;1.92;;;1.20;;
24681;SDS011;12802;53.390;-2.328;2023-01-29T15:29:56;2.97;;;1.27;;
24681;SDS011;12802;53.390;-2.328;2023-01-29T15:32:25;1.27;;;0.73;;
24681;SDS011;12802;53.390;-2.328;2023-01-29T15:35:06;1.13;;;0.60;;
24681;SDS011;12802;53.390;-2.328;2023-01-29T15:37:35;1.55;;;0.88;;
24681;SDS011;12802;53.390;-2.328;2023-01-29T15:40:01;1.08;;;0.63;;
24681;SDS011;12802;53.390;-2.328;2023-01-29T15:45:26;2.45;;;0.80;;
24681;SDS011;12802;53.390;-2.328;2023-01-29T15:47:56;6.07;;;0.90;;
24681;SDS011;12802;53.390;-2.328;2023-01-29T15:50:33;4.13;;;0.90;;
24681;SDS011;12802;53.390;-2.328;2023-01-29T15:53:05;2.08;;;0.40;;
24681;SDS011;12802;53.390;-2.328;2023-01-29T15:55:33;2.30;;;1.00;;
24681;SDS011;12802;53.390;-2.328;2023-01-29T15:58:00;0.98;;;0.68;;
24681;SDS011;12802;53.390;-2.328;2023-01-29T16:00:26;2.13;;;0.47;;
24681;SDS011;12802;53.390;-2.328;2023-01-29T16:02:54;2.13;;;1.00;;
24681;SDS011;12802;53.390;-2.328;2023-01-29T16:05:25;2.90;;;1.05;;
24681;SDS011;12802;53.390;-2.328;2023-01-29T16:07:53;2.60;;;1.02;;
24681;SDS011;12802;53.390;-2.328;2023-01-29T16:12:50;2.28;;;0.80;;
24681;SDS011;12802;53.390;-2.328;2023-01-29T16:15:22;1.80;;;1.00;;
24681;SDS011;12802;53.390;-2.328;2023-01-29T16:17:59;7.00;;;1.30;;
24681;SDS011;12802;53.390;-2.328;2023-01-29T16:20:42;2.75;;;0.93;;
24681;SDS011;12802;53.390;-2.328;2023-01-29T16:23:18;0.98;;;0.70;;
24681;SDS011;12802;53.390;-2.328;2023-01-29T16:25:49;0.95;;;0.65;;
24681;SDS011;12802;53.390;-2.328;2023-01-29T16:28:15;4.07;;;1.15;;
24681;SDS011;12802;53.390;-2.328;2023-01-29T16:30:42;4.57;;;0.70;;
24681;SDS011;12802;53.390;-2.328;2023-01-29T16:33:12;2.45;;;0.75;;
24681;SDS011;12802;53.390;-2.328;2023-01-29T16:35:39;1.60;;;0.90;;
24681;SDS011;12802;53.390;-2.328;2023-01-29T16:38:23;2.85;;;1.25;;
24681;SDS011;12802;53.390;-2.328;2023-01-29T16:41:26;2.63;;;1.42;;
24681;SDS011;12802;53.390;-2.328;2023-01-29T16:43:46;5.28;;;1.08;;
24681;SDS011;12802;53.390;-2.328;2023-01-29T16:46:18;2.50;;;1.15;;
24681;SDS011;12802;53.390;-2.328;2023-01-29T16:48:48;1.42;;;0.43;;
24681;SDS011;12802;53.390;-2.328;2023-01-29T16:51:24;1.42;;;0.70;;
24681;SDS011;12802;53.390;-2.328;2023-01-29T16:53:51;3.42;;;1.02;;
24681;SDS011;12802;53.390;-2.328;2023-01-29T16:56:24;1.80;;;1.40;;
24681;SDS011;12802;53.390;-2.328;2023-01-29T16:58:53;3.05;;;1.30;;
24681;SDS011;12802;53.390;-2.328;2023-01-29T17:01:20;2.55;;;1.10;;
24681;SDS011;12802;53.390;-2.328;2023-01-29T17:03:50;3.00;;;1.38;;
24681;SDS011;12802;53.390;-2.328;2023-01-29T17:06:24;1.95;;;1.00;;
24681;SDS011;12802;53.390;-2.328;2023-01-29T17:08:51;2.60;;;0.90;;
24681;SDS011;12802;53.390;-2.328;2023-01-29T17:11:35;2.38;;;1.00;;
24681;SDS011;12802;53.390;-2.328;2023-01-29T17:14:04;2.95;;;0.70;;
24681;SDS011;12802;53.390;-2.328;2023-01-29T17:16:33;5.10;;;1.20;;
24681;SDS011;12802;53.390;-2.328;2023-01-29T17:19:03;4.53;;;1.27;;
24681;SDS011;12802;53.390;-2.328;2023-01-29T17:21:41;1.98;;;0.85;;
24681;SDS011;12802;53.390;-2.328;2023-01-29T17:24:07;3.75;;;1.05;;
24681;SDS011;12802;53.390;-2.328;2023-01-29T17:26:33;3.17;;;1.10;;
24681;SDS011;12802;53.390;-2.328;2023-01-29T17:28:58;0.85;;;0.60;;
24681;SDS011;12802;53.390;-2.328;2023-01-29T17:31:24;1.40;;;1.13;;
24681;SDS011;12802;53.390;-2.328;2023-01-29T17:33:50;1.70;;;1.00;;
24681;SDS011;12802;53.390;-2.328;2023-01-29T17:36:16;5.00;;;0.90;;
24681;SDS011;12802;53.390;-2.328;2023-01-29T17:38:42;6.32;;;1.20;;
24681;SDS011;12802;53.390;-2.328;2023-01-29T17:41:24;2.13;;;0.93;;
24681;SDS011;12802;53.390;-2.328;2023-01-29T17:43:52;2.17;;;0.95;;
24681;SDS011;12802;53.390;-2.328;2023-01-29T17:46:18;2.08;;;1.17;;
24681;SDS011;12802;53.390;-2.328;2023-01-29T17:48:44;2.38;;;1.20;;